MMTJ/TIJ METAR and TAF weather

Enter ICAO airport designator
Station Type Date Time Source
MMTJ METAR 2019/07/18 10:40 UTC NOAA

MMTJ 181040Z 00000KT 5SM OVC008 18/16 A2999 RMK 8/6// HZY


Station Type Date Time Source
MMTJ Decoded METAR 2019/07/18 10:40 UTC NOAA

Tijuana International Airport , Mexico (MMTJ) 32-33N 116-58W
Jul 18, 2019 - 06:40 AM EDT / 2019.07.18 1040 UTC
Wind: Calm:0
Visibility: 5 mile(s):0
Sky conditions: overcast
Temperature: 64 F (18 C)
Dew Point: 60 F (16 C)
Relative Humidity: 88%
Pressure (altimeter): 29.99 in. Hg (1015 hPa)
ob: MMTJ 181040Z 00000KT 5SM OVC008 18/16 A2999 RMK 8/6// HZY
cycle: 10

Station Type Date Time Source
MMTJ TAF 2019/07/18 12:07 UTC NOAA

TAF MMTJ 181101Z 1812/1918 30005KT 5SM HZ OVC008 TX27/1821Z TN17/1912Z
FM181500 30010KT 6SM HZ SKC
FM190300 30005KT 6SM HZ SCT010
FM190800 00000KT 5SM HZ OVC008
FM191500 30010KT P6SM SKC

Example: see airport list